Accueil
METAR-TAF:

METAR-TAF

Aéroports :

Le Helder, Pays-Bas

latitude: 52-55N, longitude: 004-47E, altitude: 0 m

Observation

Le bulletin a été fait il y a 25 minutes, à 15:55 UTC
Vent 7 kt de nord/nord-est, variant entre nord et est/nord-est
Température 5°C
Humidité 65%
Pression 1031 hPa
Visibilité 10 km ou plus
Nuages épars à une hauteur de 4200 ft

METAR: EHKD 051555Z AUTO 03007KT 350V060 9999 SCT042 05/M01 Q1031 BLU NOSIG

Heure: 17:20 (16:20 UTC)

Prévision

Le bulletin a été fait il y a 2 heures et 33 minutes, à 13:47 UTC
Prévision valable du 05 à 14 UTC au 06 à 02 UTC
Vent 8 kt de nord/nord-est
Visibilité 10 km ou plus
Nuages épars à une hauteur de 3000 ft

TAF: EHKD 051347Z 0514/0602 03008KT 9999 SCT030

Observations et prévisions météorologiques de plus de 4000 aéroports (messages METAR et TAF).

Les stations disponibles sont représentées par des disques jaunes et rouges sur la carte.

Passer la souris dessus pour voir le nom de la station.

Cliquer dessus pour voir les observations et prévisions météorologiques.

Pour changer de carte: cliquez sur les boutons verts avec une croix noire pour zoomer, sur le bouton vert avec un tiret pour effectuer un zoom arrière, ou sur les flèches vertes pour les cartes adjacentes.


METAR-TAF: